Thursday, May 05, 2016
19:59 UTC
  |  Log In   |  Register Free
Airport Search:

Julian Carroll Airport
(KJKL)

Julian Carroll Airport Diagram
No Airport Diagram Available

FAA data valid effective Mar 31 2016 - May 26 2016 (unless otherwise noted).

 
 
 
 
 
 
 
 
 
 
 
 
 
 
Current Aviation Weather for KJKL

Weather Summary


The most recent METAR observation for JKL was updated at: 12:53 UTC
METAR for KJKL is not available. Closest METAR is for KSJS
KJKL  (most recent observation was updatred at 51:95 UTC)
051953Z AUTO VRB05KT 10SM BKN039 BKN046 11/03 A2981 RMK AO2 SLP093 T01110028

KSJS  (33.7 nm SW)   (most recent observation was updated at 51:93 UTC)
051935Z AUTO 34005KT 10SM OVC039 11/04 A2979 RMK AO2 T01050039

TAF for KJKL is not available.
KJKL
051730Z 0518/0618 32005KT P6SM VCSH BKN035 OVC045 FM052300 31006KT 5SM -SHRA OVC030 FM060100 VRB03KT P6SM VCSH OVC035 FM061400 33005KT P6SM OVC045

KSJS  (33.7 nm SW)   (most recent observation was updatred at 51:73 UTC)
051730Z 0518/0618 31006KT P6SM VCSH BKN035 OVC045 FM052300 30007KT 3SM -SHRA OVC025 FM060400 31004KT P6SM VCSH OVC030 FM060600 33004KT P6SM OVC045
GlobalAir.com is loading additional information.
 Current Weather at JKL
52.0 F° (11.1 C°)

Variable winds at 5.8 mph
Pressure:
29.79 in
Humidity:
61%
Wind:
Variable at 5.8 mph
Dew Point:
39.0 F° (3.9 C°)
Visibility:
10.00 mi
JKL NOAA Radar




Find All Airport Services Find A Hotel Find A Rental Car Find A Golf Course Find A Restaurant $100 Hamburger



Airport Weather Forecast for KJKL

Translated METAR for KJKL (1953 UTC)
METAR:
KJKL 051953Z AUTO VRB05KT 10SM BKN039 BKN046 11/03 A2981 RMK AO2 SLP093 T01110028
Conditions at:
KJKL (Julian Carroll, KY) observed 1953 UTC 05 May 2016
Temperature:
11°C (51.8°F)
Dewpoint:
3°C (37.4°F) [RH = 57.8]
Pressure:
29.81 inches Hg (1009.5 mb)
pressure at sea level is 93 in Hg
Winds:
variable wind direction at 5.8 mph (5 knots: 2.6 m/s)
Visibility:
10 mile(s)
Ceiling:
3,900 feet AGL
Clouds:
Broken Cloud Cover at 3,900 feet AGL
Broken Cloud Cover at 4,600 feet AGL
Remarks:
site is un-manned
site is automated and HAS a precipitation sensor

Translated TAF for KJKL (Julian Carroll, KY) (1730 UTC)
TAF text:
KJKL 051730Z 0518/0618 32005KT P6SM VCSH BKN035 OVC045
Forecast period:
Thursday May 05 2016 18:00 UTC - Friday May 06 2016 18:00 UTC
Forecast type:
FROM: standard forecast or significant change
Winds:
from the NW (320 degrees) at 5.8 mph (5 knots: 2.6 m/s)
Visibility:
6 or more mile(s) (9.7+ km)
Ceiling:
3,500 feet AGL
Clouds:
Broken Cloud Cover at 3,500 feet AGL
Overcast Skies at 4,500 feet AGL
Weather:
Moderate In Vicinity Shower(s)
TAF text:
FM052300 31006KT 5SM -SHRA OVC030
Forecast period:
Thursday May 05 2016 23:00 UTC - Friday May 06 2016 01:00 UTC
Forecast type:
FROM: standard forecast or significant change
Winds:
from the NW (310 degrees) at 6.9 mph (6 knots: 3.1 m/s)
Visibility:
5 mile(s) (8 km)
Ceiling:
3,000 feet AGL
Clouds:
Overcast Skies at 3,000 feet AGL
Weather:
Light Shower(s) Rain
TAF text:
FM060100 VRB03KT P6SM VCSH OVC035
Forecast period:
Friday May 06 2016 01:00 UTC - Friday May 06 2016 14:00 UTC
Forecast type:
FROM: standard forecast or significant change
Winds:
variable wind direction at 3.5 mph (3 knots: 1.5 m/s)
Visibility:
6 or more mile(s) (9.7+ km)
Ceiling:
3,500 feet AGL
Clouds:
Overcast Skies at 3,500 feet AGL
Weather:
Moderate In Vicinity Shower(s)
TAF text:
FM061400 33005KT P6SM OVC045
Forecast period:
Friday May 06 2016 14:00 UTC - Friday May 06 2016 18:00 UTC
Forecast type:
FROM: standard forecast or significant change
Winds:
from the NNW (330 degrees) at 5.8 mph (5 knots: 2.6 m/s)
Visibility:
6 or more mile(s) (9.7+ km)
Ceiling:
4,500 feet AGL
Clouds:
Overcast Skies at 4,500 feet AGL
Weather:
no significant weather observed at this time
FBO's on the Field
FBO Company Facility Photos Services Transportation Aviation Fuel Prices: Prices include tax
Catering Weather Repair Courtesy Rental Type 100LL JetA JetA+ MOGAS 8087
 
Add another FBO Facility Photos Catering Weather Repair Courtesy Rental Type 100LL JetA JetA+ MOGAS 8087
Services Transportation Aviation Fuel Prices: Prices include tax
There are no FBO's currently reporting fuel at JKL. List your FBO now


model-print
model-print
model-print
model-print